Time;durP1;ratioP1;P1;durP2;ratioP2;P2;SDS_P1;SDS_P2;PMS_P1;PMS_P2;Temp;Humidity;BMP_temperature;BMP_pressure;BME280_temperature;BME280_humidity;BME280_pressure;Samples;Min_cycle;Max_cycle;Signal;HPM_P1;HPM_P2
2024/02/29 00:00:17;;;;;;;243.77;229.77;;;6.40;22.80;;;;;;5014651;28;20193;-74
2024/02/29 00:02:42;;;;;;;248.10;234.07;;;6.20;23.30;;;;;;5014430;28;20412;-73
2024/02/29 00:05:12;;;;;;;215.07;201.97;;;6.30;23.80;;;;;;5014578;28;20232;-75
2024/02/29 00:07:40;;;;;;;154.60;143.30;;;6.30;22.30;;;;;;5014492;28;20169;-73
2024/02/29 00:10:07;;;;;;;182.20;169.97;;;6.30;21.70;;;;;;5014448;28;20435;-74
2024/02/29 00:12:33;;;;;;;147.03;135.73;;;6.30;21.70;;;;;;5014001;28;20459;-73
2024/02/29 00:14:59;;;;;;;186.67;174.37;;;6.20;20.80;;;;;;5014614;28;20499;-74
2024/02/29 00:17:24;;;;;;;175.10;163.27;;;6.30;20.70;;;;;;5014258;28;20450;-74
2024/02/29 00:19:50;;;;;;;209.77;196.60;;;6.20;20.40;;;;;;5014217;28;20197;-74
2024/02/29 00:22:15;;;;;;;169.47;157.73;;;6.20;20.60;;;;;;5014038;28;20177;-74
2024/02/29 00:24:41;;;;;;;164.27;152.20;;;6.20;20.60;;;;;;5014402;28;20173;-75
2024/02/29 00:27:07;;;;;;;156.53;145.13;;;6.10;19.60;;;;;;5014155;28;20169;-75
2024/02/29 00:29:32;;;;;;;153.70;142.30;;;6.10;19.50;;;;;;5014081;28;20618;-75
2024/02/29 00:32:00;;;;;;;155.57;144.27;;;6.00;19.00;;;;;;5013736;28;20954;-75
2024/02/29 00:34:28;;;;;;;124.33;113.87;;;5.90;18.50;;;;;;5013963;28;20215;-74
2024/02/29 00:36:54;;;;;;;135.53;124.57;;;6.20;17.00;;;;;;5013968;28;20408;-73
2024/02/29 00:39:20;;;;;;;129.63;119.13;;;6.30;14.60;;;;;;5013872;28;21013;-73
2024/02/29 00:41:45;;;;;;;154.87;143.43;;;6.20;14.20;;;;;;5013687;28;20442;-73
2024/02/29 00:44:11;;;;;;;81.37;71.90;;;6.30;11.90;;;;;;5013824;28;20252;-73
2024/02/29 00:46:40;;;;;;;82.27;70.67;;;6.40;10.60;;;;;;5013675;28;20241;-73
2024/02/29 00:49:06;;;;;;;82.93;73.80;;;6.40;17.40;;;;;;4995980;28;20169;-73
2024/02/29 00:51:31;;;;;;;89.03;77.27;;;6.40;8.20;;;;;;5013411;28;20454;-73
2024/02/29 00:53:57;;;;;;;76.50;57.47;;;;;;;;;;5013722;28;20775;-73
2024/02/29 00:56:23;;;;;;;76.50;55.40;;;6.40;6.10;;;;;;5013549;28;20527;-73
2024/02/29 00:58:49;;;;;;;79.73;59.47;;;6.30;6.10;;;;;;5013484;28;20487;-73
2024/02/29 01:01:14;;;;;;;77.20;57.17;;;6.30;5.60;;;;;;5013416;28;20424;-73
2024/02/29 01:03:40;;;;;;;73.10;44.00;;;6.30;5.20;;;;;;5013179;28;20536;-75
2024/02/29 01:06:07;;;;;;;88.80;40.97;;;6.30;5.70;;;;;;4995704;28;20235;-75
2024/02/29 01:08:32;;;;;;;72.17;42.27;;;6.20;6.90;;;;;;5013489;28;20193;-75
2024/02/29 01:10:58;;;;;;;72.07;42.80;;;;;;;;;;5013222;28;20486;-74
2024/02/29 01:13:24;;;;;;;75.40;57.07;;;6.00;9.40;;;;;;5013230;28;20161;-71
2024/02/29 01:15:50;;;;;;;92.27;83.17;;;;;;;;;;5013436;28;20483;-72
2024/02/29 01:18:16;;;;;;;80.07;67.53;;;6.00;12.80;;;;;;5013356;28;20169;-72
2024/02/29 01:20:41;;;;;;;77.97;58.47;;;5.80;14.90;;;;;;5013060;28;20420;-73
2024/02/29 01:23:07;;;;;;;423.53;400.60;;;5.70;15.70;;;;;;5012880;28;20161;-75
2024/02/29 01:25:33;;;;;;;86.20;77.10;;;5.60;17.00;;;;;;5012988;28;20215;-75
2024/02/29 01:27:58;;;;;;;127.10;115.60;;;5.60;17.40;;;;;;5013110;28;20674;-75
2024/02/29 01:30:24;;;;;;;89.93;80.67;;;;;;;;;;5013193;28;20189;-74
2024/02/29 01:32:50;;;;;;;85.67;75.53;;;5.60;16.60;;;;;;5012814;28;20211;-75
2024/02/29 01:35:15;;;;;;;83.57;72.13;;;5.60;17.10;;;;;;5012981;28;20498;-75
2024/02/29 01:37:42;;;;;;;91.93;82.70;;;5.60;17.90;;;;;;5012890;28;20599;-75
2024/02/29 01:40:08;;;;;;;84.23;75.20;;;5.50;19.00;;;;;;5012655;28;20664;-75
2024/02/29 01:42:33;;;;;;;82.27;69.47;;;5.50;20.60;;;;;;5012397;28;20754;-75
2024/02/29 01:44:59;;;;;;;103.70;93.83;;;5.50;22.20;;;;;;5012662;28;20495;-76
2024/02/29 01:47:26;;;;;;;109.80;99.87;;;5.40;24.30;;;;;;5012818;28;20184;-76
2024/02/29 01:49:56;;;;;;;97.60;88.30;;;5.50;26.30;;;;;;5012665;28;20740;-76
2024/02/29 01:52:25;;;;;;;136.47;125.67;;;5.50;28.40;;;;;;5012474;28;20955;-75
2024/02/29 01:54:50;;;;;;;119.43;109.07;;;5.40;28.70;;;;;;5012858;28;20404;-75
2024/02/29 01:57:16;;;;;;;106.63;96.87;;;5.50;29.40;;;;;;5012872;28;20427;-74
2024/02/29 01:59:45;;;;;;;134.00;122.83;;;5.40;30.30;;;;;;5012758;28;20255;-75
2024/02/29 02:02:11;;;;;;;125.53;115.27;;;5.40;30.00;;;;;;5012314;28;20544;-74
2024/02/29 02:04:36;;;;;;;150.27;139.10;;;5.40;29.90;;;;;;5012516;28;20487;-76
2024/02/29 02:07:03;;;;;;;105.73;95.53;;;5.40;29.30;;;;;;5012430;28;20491;-76
2024/02/29 02:09:29;;;;;;;123.30;112.70;;;5.30;29.30;;;;;;5012310;28;20189;-76
2024/02/29 02:11:55;;;;;;;135.67;124.50;;;5.20;29.60;;;;;;5012144;28;20848;-72
2024/02/29 02:14:21;;;;;;;127.30;116.63;;;5.30;29.70;;;;;;5012450;28;20157;-74
2024/02/29 02:16:48;;;;;;;116.57;106.53;;;5.30;30.00;;;;;;5011725;28;20986;-76
2024/02/29 02:19:15;;;;;;;118.57;108.27;;;5.00;48.90;;;;;;5012157;28;20408;-75
2024/02/29 02:21:41;;;;;;;131.57;120.77;;;5.10;30.30;;;;;;5011922;28;20415;-75
2024/02/29 02:24:07;;;;;;;134.83;124.10;;;5.30;32.00;;;;;;5012164;28;20411;-75
2024/02/29 02:26:33;;;;;;;124.87;114.27;;;5.10;33.30;;;;;;5011956;28;20415;-75
2024/02/29 02:29:00;;;;;;;117.30;106.90;;;5.00;56.60;;;;;;5012070;28;20181;-75
2024/02/29 02:31:26;;;;;;;132.10;121.47;;;;;;;;;;5012088;28;20185;-74
2024/02/29 02:33:52;;;;;;;139.10;127.83;;;5.10;39.70;;;;;;5011797;28;20400;-73
2024/02/29 02:36:17;;;;;;;139.43;128.33;;;5.00;41.60;;;;;;5011952;28;20400;-73
2024/02/29 02:38:43;;;;;;;147.47;136.07;;;5.00;44.00;;;;;;5012218;28;20323;-75
2024/02/29 02:41:08;;;;;;;180.00;167.47;;;4.90;44.10;;;;;;5011978;28;20284;-75
2024/02/29 02:43:34;;;;;;;158.50;146.87;;;5.10;45.30;;;;;;5011573;28;20172;-74
2024/02/29 02:45:59;;;;;;;192.57;179.53;;;5.10;45.20;;;;;;5012004;28;20181;-74
2024/02/29 02:48:25;;;;;;;186.67;173.80;;;5.10;44.50;;;;;;5012093;28;20644;-74
2024/02/29 02:50:51;;;;;;;165.67;153.53;;;5.10;43.80;;;;;;5011651;28;20223;-74
2024/02/29 02:53:17;;;;;;;167.90;156.13;;;5.10;44.00;;;;;;5011591;28;20248;-74
2024/02/29 02:55:43;;;;;;;207.57;193.67;;;5.10;43.10;;;;;;5011891;28;20496;-75
2024/02/29 02:58:08;;;;;;;155.13;143.43;;;5.10;43.30;;;;;;5011866;28;20169;-74
2024/02/29 03:00:34;;;;;;;149.90;138.60;;;5.00;43.70;;;;;;5011812;28;20192;-75
2024/02/29 03:03:00;;;;;;;309.93;293.13;;;5.00;44.10;;;;;;5011484;28;20173;-75
2024/02/29 03:05:26;;;;;;;168.73;156.57;;;;;;;;;;5011838;28;20189;-74
2024/02/29 03:07:52;;;;;;;136.13;124.97;;;5.00;44.90;;;;;;5011671;28;20453;-75
2024/02/29 03:10:17;;;;;;;171.43;159.03;;;5.00;46.80;;;;;;5011718;28;20514;-76
2024/02/29 03:12:43;;;;;;;204.53;191.33;;;5.00;47.80;;;;;;5011188;28;20193;-74
2024/02/29 03:15:09;;;;;;;206.67;193.67;;;4.90;48.60;;;;;;5011695;28;20661;-74
2024/02/29 03:17:35;;;;;;;267.27;252.27;;;4.90;51.00;;;;;;5011845;28;20211;-73
2024/02/29 03:20:00;;;;;;;235.73;221.63;;;4.90;53.70;;;;;;5011593;28;20431;-73
2024/02/29 03:22:26;;;;;;;248.57;233.97;;;4.80;54.90;;;;;;5011307;28;20268;-75
2024/02/29 03:24:52;;;;;;;279.07;264.07;;;4.70;58.70;;;;;;5011608;28;20212;-75
2024/02/29 03:27:18;;;;;;;277.90;262.33;;;4.70;62.40;;;;;;5012373;28;20261;-74
2024/02/29 03:29:44;;;;;;;321.60;304.80;;;4.70;67.20;;;;;;5015017;28;20885;-74
2024/02/29 03:32:10;;;;;;;243.00;228.70;;;4.60;72.30;;;;;;5014872;28;20208;-73
2024/02/29 03:34:36;;;;;;;282.20;266.33;;;4.50;77.00;;;;;;5015147;28;20715;-73
2024/02/29 03:37:02;;;;;;;275.33;259.90;;;;;;;;;;5015048;28;20416;-73
2024/02/29 03:39:28;;;;;;;278.00;261.90;;;4.50;85.00;;;;;;5014837;28;20427;-73
2024/02/29 03:41:53;;;;;;;292.20;276.27;;;4.40;86.50;;;;;;5014693;28;20833;-73
2024/02/29 03:44:19;;;;;;;299.67;283.00;;;;;;;;;;5014980;28;20211;-73
2024/02/29 03:46:45;;;;;;;271.73;255.80;;;4.40;90.60;;;;;;5014930;28;20387;-73
2024/02/29 03:49:10;;;;;;;283.80;268.03;;;4.60;99.90;;;;;;5014821;28;20423;-72
2024/02/29 03:51:36;;;;;;;281.17;265.53;;;4.40;92.80;;;;;;5014659;28;20200;-72
2024/02/29 03:54:02;;;;;;;259.07;244.30;;;4.40;94.20;;;;;;5014888;28;20629;-75
2024/02/29 03:56:28;;;;;;;359.23;340.50;;;;;;;;;;5014723;28;20215;-75
2024/02/29 03:58:54;;;;;;;474.23;451.17;;;4.40;94.60;;;;;;5014845;28;20480;-74
2024/02/29 04:01:19;;;;;;;424.03;402.87;;;4.40;95.30;;;;;;5014556;28;20514;-75
2024/02/29 04:03:45;;;;;;;314.60;298.03;;;4.40;95.40;;;;;;5014286;28;20165;-75
2024/02/29 04:06:10;;;;;;;326.83;309.83;;;4.50;96.80;;;;;;5014639;28;20248;-75
2024/02/29 04:08:36;;;;;;;290.20;274.23;;;4.50;95.20;;;;;;5014847;28;20173;-74
2024/02/29 04:11:02;;;;;;;281.53;265.37;;;4.50;94.60;;;;;;5014417;28;20193;-73
2024/02/29 04:13:28;;;;;;;278.50;262.37;;;4.50;95.40;;;;;;5014278;28;20162;-75
2024/02/29 04:15:53;;;;;;;408.57;388.13;;;4.50;95.80;;;;;;5014453;28;20414;-75
2024/02/29 04:18:19;;;;;;;316.00;299.33;;;;;;;;;;5014412;28;20556;-73
2024/02/29 04:20:45;;;;;;;419.07;398.20;;;4.50;95.30;;;;;;5014148;28;20192;-73
2024/02/29 04:23:11;;;;;;;280.03;264.53;;;4.50;95.70;;;;;;5014040;28;20408;-73
2024/02/29 04:25:37;;;;;;;261.03;246.30;;;4.50;96.50;;;;;;5014220;28;20404;-73
2024/02/29 04:28:03;;;;;;;281.60;265.60;;;4.40;96.80;;;;;;5014096;28;20455;-73
2024/02/29 04:30:29;;;;;;;363.90;344.07;;;4.50;96.70;;;;;;5014036;28;20602;-73
2024/02/29 04:32:55;;;;;;;259.73;244.27;;;4.40;97.00;;;;;;5013680;28;20455;-72
2024/02/29 04:35:21;;;;;;;321.70;303.70;;;4.40;97.00;;;;;;5014022;28;20400;-72
2024/02/29 04:37:47;;;;;;;251.33;236.50;;;4.40;97.10;;;;;;5014155;28;20396;-72
2024/02/29 04:40:13;;;;;;;254.83;240.20;;;4.40;97.60;;;;;;5013662;28;20193;-73
2024/02/29 04:42:39;;;;;;;296.57;279.00;;;4.30;97.60;;;;;;5014087;28;20419;-73
2024/02/29 04:45:06;;;;;;;256.23;241.33;;;4.30;97.10;;;;;;5014241;28;20606;-73
2024/02/29 04:47:32;;;;;;;263.73;248.83;;;;;;;;;;5013856;28;20407;-73
2024/02/29 04:49:58;;;;;;;343.53;325.93;;;4.40;96.90;;;;;;5013487;28;20785;-73
2024/02/29 04:52:23;;;;;;;499.83;473.20;;;4.40;96.20;;;;;;5013512;28;20459;-72
2024/02/29 04:54:49;;;;;;;286.30;270.07;;;4.40;96.30;;;;;;5013721;28;20411;-75
2024/02/29 04:57:15;;;;;;;302.47;285.93;;;4.40;95.70;;;;;;5013578;28;20169;-74
2024/02/29 04:59:41;;;;;;;274.17;258.33;;;4.40;95.20;;;;;;5013530;28;20686;-75
2024/02/29 05:02:09;;;;;;;333.90;316.17;;;;;;;;;;5013220;28;20239;-75
2024/02/29 05:04:34;;;;;;;295.67;278.67;;;4.40;92.80;;;;;;5013453;28;20495;-75
2024/02/29 05:07:00;;;;;;;417.77;392.33;;;4.50;90.90;;;;;;5013376;28;20839;-73
2024/02/29 05:09:26;;;;;;;248.07;233.27;;;;;;;;;;5013191;28;20185;-73
2024/02/29 05:11:51;;;;;;;250.17;235.60;;;4.60;85.50;;;;;;5013143;28;20205;-72
2024/02/29 05:14:17;;;;;;;332.03;313.63;;;4.50;83.30;;;;;;5013431;28;20415;-73
2024/02/29 05:16:42;;;;;;;199.80;186.70;;;4.60;79.90;;;;;;5013311;28;20169;-72
2024/02/29 05:19:08;;;;;;;331.90;313.47;;;4.80;95.40;;;;;;5013276;28;20173;-72
2024/02/29 05:21:33;;;;;;;326.07;308.23;;;4.60;75.50;;;;;;5012957;28;20252;-73
2024/02/29 05:23:59;;;;;;;480.07;453.07;;;4.60;75.30;;;;;;5013188;28;20177;-73
2024/02/29 05:26:25;;;;;;;257.90;243.13;;;4.60;71.90;;;;;;5013172;28;20253;-73
2024/02/29 05:28:53;;;;;;;241.13;226.87;;;4.60;69.60;;;;;;5013253;28;20592;-73
2024/02/29 05:31:20;;;;;;;213.93;200.67;;;4.60;69.30;;;;;;5013075;28;20572;-73
2024/02/29 05:33:46;;;;;;;313.77;296.67;;;4.60;70.80;;;;;;5012659;28;20440;-73
2024/02/29 05:36:14;;;;;;;263.03;248.20;;;4.60;69.50;;;;;;5012749;28;20836;-73
2024/02/29 05:38:39;;;;;;;240.17;225.80;;;4.60;69.20;;;;;;5012901;28;20161;-74
2024/02/29 05:41:06;;;;;;;306.80;289.90;;;4.50;71.00;;;;;;5012928;28;20459;-73
2024/02/29 05:43:32;;;;;;;257.87;243.27;;;4.60;74.10;;;;;;5012968;28;20235;-74
2024/02/29 05:45:57;;;;;;;250.07;235.63;;;4.60;76.30;;;;;;5012882;28;20408;-75
2024/02/29 05:48:23;;;;;;;343.50;326.00;;;4.50;76.40;;;;;;5012704;28;20893;-73
2024/02/29 05:50:48;;;;;;;202.90;189.93;;;4.50;79.50;;;;;;5011645;28;20200;-74
2024/02/29 05:53:14;;;;;;;295.97;279.67;;;4.50;81.80;;;;;;5012382;28;20524;-74
2024/02/29 05:55:41;;;;;;;372.67;352.67;;;4.50;85.10;;;;;;5012683;28;20180;-74
2024/02/29 05:58:06;;;;;;;233.27;219.43;;;4.50;89.80;;;;;;5012568;28;20680;-74
2024/02/29 06:00:32;;;;;;;248.73;234.03;;;4.50;90.90;;;;;;5012399;28;20420;-74
2024/02/29 06:02:58;;;;;;;598.87;565.93;;;4.50;92.00;;;;;;5012496;28;20177;-74
2024/02/29 06:05:23;;;;;;;279.77;264.33;;;4.40;93.90;;;;;;5012518;28;20193;-74
2024/02/29 06:07:49;;;;;;;277.03;261.40;;;4.40;95.60;;;;;;5012405;28;20542;-72
2024/02/29 06:10:14;;;;;;;228.90;214.83;;;4.70;97.30;;;;;;5012410;28;20193;-70
2024/02/29 06:12:40;;;;;;;280.77;264.77;;;4.40;97.20;;;;;;5012124;28;20283;-71
2024/02/29 06:15:07;;;;;;;330.60;313.03;;;4.40;97.20;;;;;;5012228;28;20711;-69
2024/02/29 06:17:33;;;;;;;375.60;355.93;;;4.30;98.30;;;;;;5012296;28;20253;-69
2024/02/29 06:19:58;;;;;;;227.20;213.10;;;4.30;99.90;;;;;;5012358;28;20503;-70
2024/02/29 06:22:24;;;;;;;254.43;239.33;;;4.30;99.90;;;;;;5012053;28;20203;-70
2024/02/29 06:24:50;;;;;;;234.37;220.00;;;4.30;99.90;;;;;;5012226;28;20173;-70
2024/02/29 06:27:17;;;;;;;303.73;286.93;;;4.30;99.90;;;;;;5012057;28;20169;-70
2024/02/29 06:29:43;;;;;;;253.47;238.50;;;4.30;99.90;;;;;;5012088;28;20788;-70
2024/02/29 06:32:08;;;;;;;639.80;602.83;;;4.40;99.90;;;;;;5011954;28;20513;-70
2024/02/29 06:34:34;;;;;;;246.87;232.10;;;4.40;99.90;;;;;;5023908;28;20596;-72
2024/02/29 06:37:00;;;;;;;310.30;293.70;;;4.40;99.90;;;;;;5031868;28;20176;-72
2024/02/29 06:39:26;;;;;;;363.30;344.73;;;4.50;99.90;;;;;;5031485;28;20438;-72
2024/02/29 06:41:52;;;;;;;305.10;288.97;;;4.50;99.90;;;;;;5031583;28;20498;-72
2024/02/29 06:44:17;;;;;;;321.20;303.80;;;4.50;99.90;;;;;;5031667;28;20167;-70
2024/02/29 06:46:43;;;;;;;320.93;303.47;;;4.60;99.90;;;;;;5031833;28;20472;-70
2024/02/29 06:49:09;;;;;;;268.53;252.97;;;4.50;99.90;;;;;;5031597;28;20648;-71
2024/02/29 06:51:35;;;;;;;446.63;424.07;;;4.60;99.90;;;;;;5031322;28;20203;-70
2024/02/29 06:54:01;;;;;;;412.80;389.40;;;4.70;99.90;;;;;;5031561;28;20179;-71
2024/02/29 06:56:27;;;;;;;482.13;455.27;;;4.80;99.90;;;;;;5031645;28;20407;-70
2024/02/29 06:58:52;;;;;;;342.03;324.13;;;4.80;99.90;;;;;;5031714;28;20410;-71
2024/02/29 07:01:21;;;;;;;354.27;335.70;;;4.90;99.90;;;;;;5031547;28;20188;-71
2024/02/29 07:03:47;;;;;;;430.63;407.83;;;4.90;99.90;;;;;;5034503;28;20517;-70
2024/02/29 07:06:13;;;;;;;350.63;332.83;;;5.00;99.90;;;;;;5035421;28;20469;-71
2024/02/29 07:08:39;;;;;;;527.17;500.10;;;5.10;99.90;;;;;;5035387;28;20494;-70
2024/02/29 07:11:05;;;;;;;515.63;489.00;;;5.10;99.90;;;;;;5035197;28;20534;-70
2024/02/29 07:13:30;;;;;;;594.20;558.07;;;5.20;99.90;;;;;;5034902;28;20929;-70
2024/02/29 07:15:56;;;;;;;476.13;451.87;;;5.30;99.90;;;;;;5035301;28;20169;-70
2024/02/29 07:18:23;;;;;;;366.10;347.03;;;5.40;99.90;;;;;;5035156;28;20171;-70
2024/02/29 07:20:49;;;;;;;582.30;552.23;;;5.40;99.90;;;;;;5035238;28;20252;-70
2024/02/29 07:23:15;;;;;;;456.90;432.97;;;5.50;99.90;;;;;;5034766;28;20407;-70
2024/02/29 07:25:41;;;;;;;451.93;428.70;;;5.60;99.90;;;;;;5035123;28;20457;-71
2024/02/29 07:28:07;;;;;;;791.70;745.57;;;5.70;99.50;;;;;;5034942;28;20617;-71
2024/02/29 07:30:32;;;;;;;426.63;405.47;;;5.70;99.50;;;;;;5035002;28;20199;-70
2024/02/29 07:32:58;;;;;;;486.93;463.37;;;5.80;99.90;;;;;;5034661;28;20200;-69
2024/02/29 07:35:25;;;;;;;449.20;427.17;;;6.00;99.30;;;;;;5034887;28;20180;-70
2024/02/29 07:37:52;;;;;;;526.67;501.07;;;6.00;98.00;;;;;;5034875;28;20177;-69
2024/02/29 07:40:17;;;;;;;562.90;533.83;;;6.10;96.90;;;;;;5034799;28;20426;-70
2024/02/29 07:42:43;;;;;;;602.17;567.83;;;6.10;98.00;;;;;;5034421;28;20415;-70
2024/02/29 07:45:09;;;;;;;717.33;677.63;;;6.30;96.20;;;;;;5034765;28;20438;-70
2024/02/29 07:47:35;;;;;;;507.00;481.47;;;6.30;97.60;;;;;;5034924;28;20530;-70
2024/02/29 07:50:03;;;;;;;517.37;491.10;;;6.30;94.80;;;;;;5034602;28;20462;-70
2024/02/29 07:52:28;;;;;;;546.07;519.17;;;6.40;96.20;;;;;;5034327;28;20287;-69
2024/02/29 07:54:54;;;;;;;502.93;477.77;;;6.50;95.20;;;;;;5034542;28;20958;-69
2024/02/29 07:57:19;;;;;;;763.83;721.97;;;6.50;96.60;;;;;;5034532;28;20169;-69
2024/02/29 07:59:45;;;;;;;530.53;504.53;;;6.60;95.60;;;;;;5034436;28;20184;-71
2024/02/29 08:02:11;;;;;;;767.43;722.93;;;6.60;95.80;;;;;;5034155;28;20179;-71
2024/02/29 08:04:36;;;;;;;449.27;426.67;;;6.70;95.60;;;;;;5034715;28;20172;-72
2024/02/29 08:07:02;;;;;;;563.67;533.30;;;6.80;96.00;;;;;;5034282;28;20203;-70
2024/02/29 08:09:28;;;;;;;632.47;599.07;;;6.80;94.00;;;;;;5034048;28;20196;-70
2024/02/29 08:11:54;;;;;;;779.50;734.80;;;6.80;93.50;;;;;;5019776;28;20458;-71
2024/02/29 08:14:20;;;;;;;658.97;624.30;;;6.90;94.80;;;;;;5013346;28;20169;-70
2024/02/29 08:16:46;;;;;;;901.20;845.77;;;;;;;;;;5014413;28;20492;-71
2024/02/29 08:19:12;;;;;;;962.43;901.00;;;7.10;99.90;;;;;;5014279;28;20165;-71
2024/02/29 08:21:37;;;;;;;615.27;584.37;;;7.40;90.80;;;;;;5014094;28;20953;-72
2024/02/29 08:24:04;;;;;;;701.80;665.10;;;7.10;90.50;;;;;;5014217;28;20563;-72
2024/02/29 08:26:30;;;;;;;761.03;719.37;;;7.20;90.40;;;;;;5014234;28;20686;-72
2024/02/29 08:28:55;;;;;;;613.23;582.23;;;7.60;89.20;;;;;;5014299;28;20405;-72
2024/02/29 08:31:21;;;;;;;677.43;642.40;;;7.30;89.20;;;;;;5014099;28;20969;-72
2024/02/29 08:33:47;;;;;;;608.33;578.17;;;7.30;87.80;;;;;;5010091;28;20169;-71
2024/02/29 08:36:13;;;;;;;609.37;579.30;;;7.40;88.60;;;;;;5013693;28;20161;-71
2024/02/29 08:38:39;;;;;;;640.80;607.23;;;7.40;84.60;;;;;;5013803;28;20559;-70
2024/02/29 08:41:04;;;;;;;710.17;670.80;;;7.40;82.30;;;;;;5013310;28;20424;-69
2024/02/29 08:43:31;;;;;;;633.20;601.00;;;7.40;81.00;;;;;;5013814;28;20415;-70
2024/02/29 08:45:56;;;;;;;667.13;633.37;;;7.60;85.00;;;;;;5013999;28;20628;-69
2024/02/29 08:48:22;;;;;;;692.97;655.33;;;7.50;79.70;;;;;;5013537;28;20414;-70
2024/02/29 08:50:48;;;;;;;762.03;721.70;;;7.60;78.20;;;;;;5012191;28;20198;-69
2024/02/29 08:53:14;;;;;;;627.67;596.60;;;7.60;79.20;;;;;;5021658;28;20422;-71
2024/02/29 08:55:40;;;;;;;642.20;609.90;;;7.70;75.00;;;;;;5032543;28;20210;-72
2024/02/29 08:58:06;;;;;;;933.17;875.67;;;7.70;72.00;;;;;;5033646;28;20814;-71
2024/02/29 09:00:31;;;;;;;715.50;676.40;;;7.80;73.80;;;;;;5016007;28;20184;-71
2024/02/29 09:02:57;;;;;;;678.70;644.37;;;8.10;72.60;;;;;;5032544;28;20178;-71
2024/02/29 09:05:23;;;;;;;847.67;796.90;;;7.90;71.30;;;;;;5033084;28;20172;-70
2024/02/29 09:07:49;;;;;;;829.57;777.20;;;8.40;69.10;;;;;;5033195;28;20258;-71
2024/02/29 09:10:15;;;;;;;715.97;677.77;;;8.00;72.90;;;;;;5032176;28;20432;-71
2024/02/29 09:12:41;;;;;;;765.80;724.57;;;8.10;67.70;;;;;;5014496;28;20455;-70
2024/02/29 09:15:07;;;;;;;686.73;651.53;;;8.10;65.40;;;;;;5032909;28;20486;-69
2024/02/29 09:17:33;;;;;;;766.77;725.03;;;8.20;67.00;;;;;;5032592;28;20423;-70
2024/02/29 09:19:59;;;;;;;754.87;712.27;;;7.90;63.50;;;;;;5032935;28;20928;-70
2024/02/29 09:22:24;;;;;;;747.87;707.47;;;8.30;61.10;;;;;;5032507;28;20550;-70
2024/02/29 09:24:50;;;;;;;714.43;677.33;;;8.40;63.20;;;;;;5032066;28;20416;-71
2024/02/29 09:27:16;;;;;;;757.00;716.17;;;8.40;61.10;;;;;;5032419;28;20201;-71
2024/02/29 09:29:41;;;;;;;695.87;660.83;;;8.40;56.60;;;;;;5014553;28;20195;-72
2024/02/29 09:32:07;;;;;;;751.93;711.77;;;8.40;59.60;;;;;;5013226;28;20206;-70
2024/02/29 09:34:34;;;;;;;773.80;731.43;;;8.70;55.50;;;;;;5032524;28;20171;-70
2024/02/29 09:37:00;;;;;;;697.97;662.07;;;8.80;56.00;;;;;;5032655;28;20248;-71
2024/02/29 09:39:26;;;;;;;755.67;715.67;;;8.60;54.10;;;;;;5031881;28;20417;-71
2024/02/29 09:41:53;;;;;;;762.53;721.17;;;9.10;57.80;;;;;;5032053;28;20959;-71
2024/02/29 09:44:19;;;;;;;941.43;877.27;;;9.20;51.70;;;;;;5032164;28;20417;-70
2024/02/29 09:46:48;;;;;;;714.47;678.07;;;9.40;45.30;;;;;;5032291;28;20411;-71
2024/02/29 09:49:14;;;;;;;1100.20;999.90;;;9.50;69.30;;;;;;5031775;28;20434;-71
2024/02/29 09:51:41;;;;;;;824.47;778.10;;;9.20;46.40;;;;;;5031573;28;20983;-71
2024/02/29 09:54:07;;;;;;;805.53;762.33;;;9.70;50.20;;;;;;5031481;28;20406;-71
2024/02/29 09:56:33;;;;;;;994.00;925.90;;;10.00;44.10;;;;;;5031852;28;20456;-71
2024/02/29 09:59:00;;;;;;;825.00;779.80;;;10.00;39.20;;;;;;5031613;28;20623;-70
2024/02/29 10:01:27;;;;;;;885.07;832.87;;;10.00;38.20;;;;;;5031797;28;20334;-70
2024/02/29 10:03:54;;;;;;;830.27;783.00;;;10.10;35.30;;;;;;5031118;28;20410;-70
2024/02/29 10:06:19;;;;;;;1004.27;941.53;;;10.30;33.70;;;;;;5032105;28;20456;-70
2024/02/29 10:08:45;;;;;;;865.30;816.67;;;10.40;30.80;;;;;;5032065;28;20434;-71
2024/02/29 10:11:11;;;;;;;948.03;890.17;;;10.50;29.10;;;;;;5031519;28;20203;-71
2024/02/29 10:13:41;;;;;;;804.60;760.77;;;10.70;30.10;;;;;;5031653;28;20211;-70
2024/02/29 10:16:13;;;;;;;907.20;854.57;;;10.80;28.40;;;;;;5032004;28;20476;-70
2024/02/29 10:18:39;;;;;;;888.03;838.73;;;11.00;25.00;;;;;;5030716;28;20398;-71
2024/02/29 10:21:13;;;;;;;875.27;824.83;;;11.20;23.60;;;;;;5031405;28;20435;-71
2024/02/29 10:23:39;;;;;;;854.63;806.43;;;11.30;22.50;;;;;;5031670;28;20251;-71
2024/02/29 10:26:05;;;;;;;872.00;820.97;;;11.50;23.40;;;;;;5031448;28;20430;-71
2024/02/29 10:28:31;;;;;;;1059.73;981.00;;;11.70;21.30;;;;;;5031862;28;20549;-70
2024/02/29 10:30:58;;;;;;;786.97;744.07;;;11.80;16.50;;;;;;5031593;28;20535;-70
2024/02/29 10:33:27;;;;;;;912.40;859.20;;;11.80;13.20;;;;;;5030931;28;20161;-71
2024/02/29 10:35:54;;;;;;;819.03;773.77;;;11.90;12.30;;;;;;5031598;28;20403;-70
2024/02/29 10:38:23;;;;;;;988.03;924.87;;;11.70;11.70;;;;;;5031165;28;20411;-71
2024/02/29 10:40:59;;;;;;;923.57;866.43;;;11.50;12.50;;;;;;5031032;28;20426;-70
2024/02/29 10:43:30;;;;;;;729.40;689.60;;;11.50;13.60;;;;;;5031716;28;20410;-71
2024/02/29 10:45:59;;;;;;;767.27;725.90;;;11.40;13.30;;;;;;5031595;28;20490;-70
2024/02/29 10:48:39;;;;;;;827.90;781.47;;;11.40;13.90;;;;;;5031501;28;20793;-71
2024/02/29 10:51:11;;;;;;;749.07;707.57;;;11.40;13.70;;;;;;5031480;28;20446;-71
2024/02/29 10:53:40;;;;;;;782.40;740.00;;;11.40;14.20;;;;;;5030883;28;20510;-71
2024/02/29 10:56:27;;;;;;;779.43;737.37;;;11.50;16.30;;;;;;5031408;28;20421;-71
2024/02/29 10:59:05;;;;;;;756.47;715.83;;;11.50;13.90;;;;;;5031720;28;20913;-71
2024/02/29 11:01:31;;;;;;;756.57;715.57;;;11.60;15.70;;;;;;5030985;28;20928;-71
2024/02/29 11:03:57;;;;;;;936.10;881.03;;;11.60;15.10;;;;;;5031206;28;20403;-71
2024/02/29 11:06:23;;;;;;;736.00;697.90;;;11.70;14.40;;;;;;5031348;28;20469;-71
2024/02/29 11:08:50;;;;;;;1012.77;944.57;;;11.50;10.80;;;;;;5030982;28;20180;-70
2024/02/29 11:11:20;;;;;;;754.43;715.20;;;11.60;11.40;;;;;;5031104;28;20454;-71
2024/02/29 11:13:46;;;;;;;753.73;713.67;;;11.60;12.00;;;;;;5031063;28;20498;-70
2024/02/29 11:16:14;;;;;;;766.90;725.93;;;11.60;11.90;;;;;;5030977;28;20494;-70
2024/02/29 11:18:41;;;;;;;1077.90;995.87;;;11.70;11.10;;;;;;5031348;28;20202;-70
2024/02/29 11:21:07;;;;;;;769.87;728.30;;;11.80;11.60;;;;;;5030960;28;20461;-71
2024/02/29 11:23:37;;;;;;;748.63;709.43;;;11.80;11.90;;;;;;5029272;28;21027;-71
2024/02/29 11:26:10;;;;;;;779.70;736.60;;;11.70;12.80;;;;;;5030870;28;20767;-70
2024/02/29 11:28:42;;;;;;;789.97;746.93;;;11.70;13.10;;;;;;5031156;28;20506;-71
2024/02/29 11:31:14;;;;;;;824.53;778.00;;;11.70;14.70;;;;;;5030438;28;20430;-70
2024/02/29 11:33:40;;;;;;;951.80;894.93;;;11.70;12.90;;;;;;5030938;28;20413;-71
2024/02/29 11:36:06;;;;;;;827.47;782.03;;;11.70;13.40;;;;;;5030931;28;20411;-71
2024/02/29 11:38:34;;;;;;;744.43;705.27;;;11.60;12.10;;;;;;5030700;28;20167;-71
2024/02/29 11:41:00;;;;;;;753.67;714.30;;;11.60;11.10;;;;;;5031074;28;20457;-71
2024/02/29 11:43:26;;;;;;;813.13;768.97;;;11.60;13.10;;;;;;5030572;28;20419;-70
2024/02/29 11:45:51;;;;;;;816.40;768.60;;;11.50;11.50;;;;;;5030005;28;20446;-71
2024/02/29 11:48:17;;;;;;;935.93;879.03;;;11.40;10.90;;;;;;5031069;28;20171;-70
2024/02/29 11:50:43;;;;;;;688.67;652.73;;;11.40;10.90;;;;;;5033330;28;20196;-70
2024/02/29 11:53:08;;;;;;;986.60;921.70;;;11.30;12.60;;;;;;5033730;28;20290;-70
2024/02/29 11:55:34;;;;;;;776.73;733.90;;;11.50;13.30;;;;;;5034677;28;20165;-70
2024/02/29 11:58:01;;;;;;;795.57;752.53;;;11.50;13.40;;;;;;5034400;28;20485;-70
2024/02/29 12:00:28;;;;;;;774.27;729.67;;;11.50;11.90;;;;;;5033813;28;20431;-70
2024/02/29 12:02:54;;;;;;;694.10;657.80;;;11.60;12.10;;;;;;5033882;28;20461;-70
2024/02/29 12:05:19;;;;;;;752.13;711.27;;;11.50;13.80;;;;;;5034072;28;20422;-70
2024/02/29 12:07:46;;;;;;;823.27;775.37;;;11.60;12.50;;;;;;5033797;28;20411;-70
2024/02/29 12:10:12;;;;;;;1147.43;999.90;;;11.60;11.50;;;;;;5034203;28;20193;-70
2024/02/29 12:12:39;;;;;;;1125.67;999.90;;;11.70;11.50;;;;;;5033813;28;20541;-70
2024/02/29 12:15:07;;;;;;;755.53;714.33;;;11.60;11.60;;;;;;5033608;28;20241;-70